Time;durP1;ratioP1;P1;durP2;ratioP2;P2;SDS_P1;SDS_P2;PMS_P1;PMS_P2;Temp;Humidity;BMP_temperature;BMP_pressure;BME280_temperature;BME280_humidity;BME280_pressure;Samples;Min_cycle;Max_cycle;Signal;HPM_P1;HPM_P2
2023/11/25 00:02:07;;;;;;;2.90;1.30;;;;;;;2.45;100.00;97285.28;5037988;28;20237;-82
2023/11/25 00:04:35;;;;;;;2.60;1.23;;;;;;;2.44;100.00;97291.44;5037606;28;20208;-82
2023/11/25 00:07:01;;;;;;;3.80;1.30;;;;;;;2.42;100.00;97274.16;5038988;28;20206;-80
2023/11/25 00:09:28;;;;;;;6.83;1.67;;;;;;;2.39;100.00;97277.78;5037347;28;20583;-81
2023/11/25 00:11:54;;;;;;;5.53;1.50;;;;;;;2.40;100.00;97271.63;5038074;28;20229;-81
2023/11/25 00:14:23;;;;;;;4.40;1.37;;;;;;;2.42;100.00;97279.38;5037289;28;20213;-81
2023/11/25 00:16:50;;;;;;;2.60;1.40;;;;;;;2.48;100.00;97311.22;5036956;28;20208;-81
2023/11/25 00:19:17;;;;;;;3.17;1.10;;;;;;;2.53;100.00;97309.22;5036890;28;20208;-80
2023/11/25 00:21:44;;;;;;;3.03;1.20;;;;;;;2.52;100.00;97314.53;5037818;28;20237;-80
2023/11/25 00:24:10;;;;;;;3.87;1.60;;;;;;;2.53;100.00;97324.88;5038024;28;20208;-81
2023/11/25 00:26:37;;;;;;;3.73;1.57;;;;;;;2.53;100.00;97324.88;5038011;28;20295;-80
2023/11/25 00:29:03;;;;;;;2.13;1.00;;;;;;;2.56;100.00;97324.72;5037369;28;20204;-80
2023/11/25 00:31:32;;;;;;;5.43;1.73;;;;;;;2.52;100.00;97325.78;5037984;28;20282;-81
2023/11/25 00:33:59;;;;;;;3.57;1.13;;;;;;;2.52;100.00;97323.16;5037372;28;20639;-81
2023/11/25 00:36:25;;;;;;;1.43;0.90;;;;;;;2.56;100.00;97335.16;5037535;28;20253;-81
2023/11/25 00:38:52;;;;;;;4.87;1.33;;;;;;;2.55;100.00;97337.81;5037999;28;20251;-81
2023/11/25 00:41:18;;;;;;;3.83;1.20;;;;;;;2.59;100.00;97344.59;5037144;28;20319;-80
2023/11/25 00:43:45;;;;;;;3.70;1.23;;;;;;;2.66;100.00;97341.59;5036946;28;20216;-81
2023/11/25 00:46:15;;;;;;;3.63;1.50;;;;;;;2.60;100.00;97352.34;5036507;28;20213;-81
2023/11/25 00:48:43;;;;;;;2.03;0.97;;;;;;;2.59;100.00;97353.25;5037242;28;20227;-81
2023/11/25 00:51:10;;;;;;;3.67;1.33;;;;;;;2.64;100.00;97356.47;5036693;28;20232;-81
2023/11/25 00:53:36;;;;;;;1.77;0.90;;;;;;;2.67;100.00;97353.72;5037540;28;20235;-81
2023/11/25 00:56:03;;;;;;;1.40;1.00;;;;;;;2.56;100.00;97358.63;5038031;28;20208;-81
2023/11/25 00:58:29;;;;;;;2.53;1.10;;;;;;;2.59;100.00;97355.88;5042176;28;20215;-81
2023/11/25 01:00:56;;;;;;;2.43;1.00;;;;;;;2.56;100.00;97361.22;5041783;28;20603;-81
2023/11/25 01:03:24;;;;;;;0.80;0.80;;;;;;;2.61;100.00;97364.47;5041722;28;20217;-81
2023/11/25 01:05:52;;;;;;;2.07;1.00;;;;;;;2.57;100.00;97368.13;5041487;28;20209;-81
2023/11/25 01:08:20;;;;;;;1.97;0.80;;;;;;;2.62;100.00;97383.53;5041861;28;20216;-81
2023/11/25 01:10:46;;;;;;;1.90;1.17;;;;;;;2.61;100.00;97385.31;5041746;28;20553;-81
2023/11/25 01:13:13;;;;;;;2.30;0.80;;;;;;;2.62;100.00;97407.88;5041746;28;20209;-80
2023/11/25 01:15:39;;;;;;;1.17;0.87;;;;;;;2.60;100.00;97404.50;5041471;28;20656;-81
2023/11/25 01:18:06;;;;;;;1.43;0.80;;;;;;;2.58;100.00;97398.50;5041888;28;20220;-81
2023/11/25 01:20:32;;;;;;;1.33;0.90;;;;;;;2.55;100.00;97421.28;5041306;28;20218;-81
2023/11/25 01:23:00;;;;;;;0.80;0.80;;;;;;;2.50;100.00;97405.88;5040742;28;20232;-80
2023/11/25 01:25:27;;;;;;;1.50;1.00;;;;;;;2.40;100.00;97417.66;5040916;28;20591;-81
2023/11/25 01:27:59;;;;;;;0.97;0.80;;;;;;;2.32;100.00;97427.59;5040405;28;20215;-80
2023/11/25 01:30:25;;;;;;;1.73;1.10;;;;;;;2.27;100.00;97432.19;5040424;28;20710;-81
2023/11/25 01:32:52;;;;;;;3.33;0.90;;;;;;;2.14;100.00;97443.28;5041116;28;20231;-81
2023/11/25 01:35:18;;;;;;;1.67;0.93;;;;;;;2.11;100.00;97452.09;5041018;28;20213;-80
2023/11/25 01:37:45;;;;;;;1.53;1.00;;;;;;;2.03;100.00;97454.19;5040178;28;20628;-80
2023/11/25 01:40:13;;;;;;;2.53;1.00;;;;;;;1.92;100.00;97464.28;5040806;28;20219;-80
2023/11/25 01:42:39;;;;;;;2.37;1.10;;;;;;;1.96;100.00;97471.03;5040084;28;20306;-80
2023/11/25 01:45:08;;;;;;;1.33;0.90;;;;;;;1.95;100.00;97466.75;5040210;28;20208;-80
2023/11/25 01:47:35;;;;;;;2.87;1.50;;;;;;;1.94;100.00;97482.44;5040148;28;20216;-80
2023/11/25 01:50:04;;;;;;;1.77;1.00;;;;;;;1.88;100.00;97475.75;5040830;28;20212;-80
2023/11/25 01:52:31;;;;;;;0.97;0.87;;;;;;;1.91;100.00;97474.78;5040688;28;20232;-80
2023/11/25 01:54:58;;;;;;;2.77;1.03;;;;;;;1.86;100.00;97482.81;5040160;28;20209;-82
2023/11/25 01:57:26;;;;;;;4.20;1.13;;;;;;;1.87;100.00;97484.50;5039752;28;20208;-80
2023/11/25 01:59:53;;;;;;;4.50;1.10;;;;;;;1.97;100.00;97490.13;5039975;28;20627;-82
2023/11/25 02:02:22;;;;;;;2.93;1.07;;;;;;;1.90;100.00;97492.16;5040296;28;20679;-80
2023/11/25 02:04:48;;;;;;;3.23;1.10;;;;;;;2.02;100.00;97493.38;5039662;28;20213;-82
2023/11/25 02:07:15;;;;;;;1.47;1.13;;;;;;;2.01;100.00;97489.06;5040487;28;20586;-81
2023/11/25 02:09:42;;;;;;;2.97;1.20;;;;;;;1.98;100.00;97497.03;5039959;28;20215;-82
2023/11/25 02:12:10;;;;;;;1.87;1.10;;;;;;;1.96;100.00;97504.09;5039292;28;20235;-81
2023/11/25 02:14:38;;;;;;;1.67;1.10;;;;;;;2.04;100.00;97515.84;5038481;28;20220;-80
2023/11/25 02:17:05;;;;;;;4.67;1.40;;;;;;;2.02;100.00;97511.63;5039247;28;20608;-81
2023/11/25 02:19:32;;;;;;;3.63;1.30;;;;;;;2.03;100.00;97510.69;5039643;28;20677;-79
2023/11/25 02:21:59;;;;;;;3.17;1.40;;;;;;;2.02;100.00;97512.44;5039682;28;20237;-81
2023/11/25 02:24:29;;;;;;;3.20;1.40;;;;;;;1.92;100.00;97505.97;5039746;28;20691;-80
2023/11/25 02:27:00;;;;;;;5.47;1.60;;;;;;;1.83;100.00;97514.19;5039914;28;20616;-80
2023/11/25 02:29:26;;;;;;;1.50;1.00;;;;;;;1.69;100.00;97515.72;5039953;28;20205;-79
2023/11/25 02:31:56;;;;;;;3.87;1.47;;;;;;;1.65;100.00;97517.59;5040132;28;20246;-81
2023/11/25 02:34:22;;;;;;;3.77;1.30;;;;;;;1.57;100.00;97522.31;5040031;28;20263;-81
2023/11/25 02:36:49;;;;;;;3.90;1.40;;;;;;;1.54;100.00;97526.81;5039749;28;20209;-81
2023/11/25 02:39:18;;;;;;;4.77;1.20;;;;;;;1.51;100.00;97533.00;5039558;28;20210;-81
2023/11/25 02:41:48;;;;;;;2.10;1.37;;;;;;;1.54;100.00;97532.84;5040320;28;20272;-81
2023/11/25 02:44:15;;;;;;;2.17;1.27;;;;;;;1.51;100.00;97538.19;5039176;28;20258;-81
2023/11/25 02:46:44;;;;;;;1.40;1.17;;;;;;;1.53;100.00;97531.16;5039270;28;20272;-81
2023/11/25 02:49:10;;;;;;;2.13;1.50;;;;;;;1.52;100.00;97534.69;5039350;28;20681;-81
2023/11/25 02:51:37;;;;;;;3.17;1.50;;;;;;;1.55;100.00;97546.72;5039651;28;20224;-81
2023/11/25 02:54:05;;;;;;;2.93;1.57;;;;;;;1.52;100.00;97545.09;5039375;28;20222;-79
2023/11/25 02:56:32;;;;;;;2.90;1.10;;;;;;;1.54;100.00;97551.06;5038084;28;20208;-81
2023/11/25 02:59:02;;;;;;;5.50;1.47;;;;;;;1.49;100.00;97563.47;5039969;28;20277;-80
2023/11/25 03:01:30;;;;;;;2.67;1.23;;;;;;;1.47;100.00;97559.22;5039547;28;20243;-81
2023/11/25 03:04:01;;;;;;;3.90;1.30;;;;;;;1.42;100.00;97564.59;5039471;28;20218;-80
2023/11/25 03:06:30;;;;;;;4.93;1.40;;;;;;;1.46;100.00;97570.53;5039571;28;20303;-82
2023/11/25 03:08:57;;;;;;;3.90;1.33;;;;;;;1.45;100.00;97569.72;5040023;28;20212;-80
2023/11/25 03:11:26;;;;;;;5.30;1.40;;;;;;;1.51;100.00;97574.66;5038958;28;20239;-82
2023/11/25 03:13:52;;;;;;;6.07;1.67;;;;;;;1.52;100.00;97571.13;5039682;28;20209;-81
2023/11/25 03:16:24;;;;;;;8.30;2.07;;;;;;;1.62;100.00;97588.06;5039089;28;20206;-81
2023/11/25 03:18:51;;;;;;;3.23;1.57;;;;;;;1.83;100.00;97581.94;5038333;28;20644;-81
2023/11/25 03:21:19;;;;;;;3.57;1.63;;;;;;;1.85;100.00;97595.72;5039409;28;20239;-81
2023/11/25 03:23:46;;;;;;;6.60;1.67;;;;;;;1.89;100.00;97593.84;5040233;28;20209;-81
2023/11/25 03:26:13;;;;;;;3.40;1.57;;;;;;;1.94;100.00;97589.25;5040998;28;20213;-81
2023/11/25 03:28:39;;;;;;;4.37;2.00;;;;;;;1.94;100.00;97595.34;5039689;28;20215;-81
2023/11/25 03:31:07;;;;;;;4.63;1.60;;;;;;;2.02;100.00;97590.63;5039330;28;20598;-81
2023/11/25 03:33:35;;;;;;;3.03;1.80;;;;;;;1.99;100.00;97588.16;5039372;28;20264;-81
2023/11/25 03:36:01;;;;;;;4.67;1.77;;;;;;;1.96;100.00;97598.72;5039844;28;20219;-80
2023/11/25 03:38:28;;;;;;;6.53;1.60;;;;;;;2.00;100.00;97595.06;5040016;28;20205;-79
2023/11/25 03:40:55;;;;;;;6.33;1.50;;;;;;;1.91;100.00;97592.84;5038875;28;20219;-80
2023/11/25 03:43:21;;;;;;;2.47;1.40;;;;;;;1.83;100.00;97599.34;5038268;28;20692;-79
2023/11/25 03:45:48;;;;;;;6.33;2.00;;;;;;;1.88;100.00;97598.22;5037939;28;20291;-79
2023/11/25 03:48:15;;;;;;;2.33;1.43;;;;;;;1.81;100.00;97603.75;5038242;28;20667;-80
2023/11/25 03:50:45;;;;;;;2.47;1.63;;;;;;;1.73;100.00;97601.47;5036399;28;20292;-79
2023/11/25 03:53:11;;;;;;;3.50;1.87;;;;;;;1.68;100.00;97613.84;5035016;28;20660;-79
2023/11/25 03:55:38;;;;;;;5.10;1.73;;;;;;;1.68;100.00;97608.66;5042700;28;20211;-80
2023/11/25 03:58:04;;;;;;;2.20;1.60;;;;;;;1.48;100.00;97606.00;5057054;28;20264;-81
2023/11/25 04:00:32;;;;;;;2.20;1.67;;;;;;;1.46;100.00;97610.44;5052800;28;20210;-80
2023/11/25 04:02:58;;;;;;;2.00;1.60;;;;;;;1.42;100.00;97615.84;5055982;28;20232;-80
2023/11/25 04:05:25;;;;;;;2.77;1.73;;;;;;;1.38;100.00;97619.47;5056313;28;20204;-80
2023/11/25 04:07:53;;;;;;;2.13;1.80;;;;;;;1.34;100.00;97626.56;5056242;28;20220;-80
2023/11/25 04:10:20;;;;;;;4.80;1.80;;;;;;;1.33;100.00;97621.41;5056977;28;20205;-80
2023/11/25 04:12:48;;;;;;;2.20;1.63;;;;;;;1.29;100.00;97636.31;5056898;28;20213;-80
2023/11/25 04:15:19;;;;;;;3.50;2.03;;;;;;;1.31;100.00;97629.31;5056537;28;20218;-80
2023/11/25 04:17:45;;;;;;;2.57;1.50;;;;;;;1.34;100.00;97643.94;5056951;28;20196;-80
2023/11/25 04:20:17;;;;;;;6.67;2.40;;;;;;;1.33;100.00;97643.09;5056779;28;20196;-79
2023/11/25 04:22:45;;;;;;;2.17;1.70;;;;;;;1.39;100.00;97648.06;5056995;28;20252;-80
2023/11/25 04:25:14;;;;;;;7.33;1.80;;;;;;;1.40;100.00;97662.78;5056585;28;20231;-80
2023/11/25 04:27:42;;;;;;;2.80;1.77;;;;;;;1.40;100.00;97664.50;5056710;28;20204;-80
2023/11/25 04:30:10;;;;;;;3.73;1.70;;;;;;;1.44;100.00;97666.94;5056433;28;20227;-80
2023/11/25 04:32:36;;;;;;;2.60;1.57;;;;;;;1.43;100.00;97662.66;5056634;28;20239;-80
2023/11/25 04:35:04;;;;;;;3.80;1.60;;;;;;;1.38;100.00;97667.19;5056573;28;20208;-79
2023/11/25 04:37:31;;;;;;;2.73;1.50;;;;;;;1.34;100.00;97665.63;5056738;28;20193;-80
2023/11/25 04:39:58;;;;;;;4.40;1.63;;;;;;;1.35;100.00;97676.91;5056859;28;20196;-80
2023/11/25 04:42:25;;;;;;;4.47;1.87;;;;;;;1.34;100.00;97681.25;5056570;28;20266;-80
2023/11/25 04:44:52;;;;;;;5.20;1.53;;;;;;;1.29;100.00;97672.75;5056680;28;20178;-80
2023/11/25 04:47:19;;;;;;;6.60;1.60;;;;;;;1.31;100.00;97681.38;5056845;28;20216;-79
2023/11/25 04:49:45;;;;;;;3.83;1.53;;;;;;;1.32;100.00;97677.84;5056857;28;20281;-80
2023/11/25 04:52:13;;;;;;;5.13;1.50;;;;;;;1.29;100.00;97683.16;5056709;28;20229;-81
2023/11/25 04:54:41;;;;;;;2.23;1.30;;;;;;;1.21;100.00;97685.25;5056660;28;20189;-80
2023/11/25 04:57:08;;;;;;;3.60;1.70;;;;;;;1.14;100.00;97689.00;5056739;28;20189;-79
2023/11/25 04:59:36;;;;;;;4.13;1.70;;;;;;;1.21;100.00;97685.25;5056177;28;20193;-80
2023/11/25 05:02:04;;;;;;;2.73;1.50;;;;;;;1.24;100.00;97690.31;5051975;28;20237;-80
2023/11/25 05:04:31;;;;;;;7.80;1.87;;;;;;;1.19;100.00;97691.41;5051236;28;20204;-79
2023/11/25 05:06:57;;;;;;;1.90;1.27;;;;;;;1.15;100.00;97685.47;5051820;28;20224;-79
2023/11/25 05:09:26;;;;;;;2.30;1.30;;;;;;;1.15;100.00;97689.81;5046159;28;20213;-80
2023/11/25 05:11:52;;;;;;;3.37;1.47;;;;;;;1.07;100.00;97684.94;5034322;28;20677;-80
2023/11/25 05:14:19;;;;;;;2.97;1.30;;;;;;;1.00;100.00;97686.06;5034522;28;20231;-79
2023/11/25 05:16:47;;;;;;;2.00;1.13;;;;;;;1.01;100.00;97692.13;5044913;28;20196;-81
2023/11/25 05:19:14;;;;;;;5.03;1.53;;;;;;;1.01;100.00;97692.13;5054745;28;20224;-79
2023/11/25 05:21:40;;;;;;;1.87;1.30;;;;;;;1.03;100.00;97691.16;5053812;28;20236;-79
2023/11/25 05:24:07;;;;;;;5.43;1.33;;;;;;;1.02;100.00;97679.06;5053735;28;20259;-80
2023/11/25 05:26:34;;;;;;;3.97;1.73;;;;;;;0.98;100.00;97693.09;5052076;28;20209;-80
2023/11/25 05:29:00;;;;;;;1.47;1.10;;;;;;;0.92;100.00;97688.13;5035804;28;20210;-80
2023/11/25 05:31:27;;;;;;;1.30;1.17;;;;;;;1.01;100.00;97686.91;5034359;28;20233;-80
2023/11/25 05:33:55;;;;;;;2.07;1.47;;;;;;;1.01;100.00;97693.00;5035778;28;20205;-80
2023/11/25 05:36:21;;;;;;;2.90;1.43;;;;;;;1.01;100.00;97693.00;5044709;28;20208;-80
2023/11/25 05:38:49;;;;;;;2.83;1.50;;;;;;;1.00;100.00;97696.47;5034092;28;20209;-80
2023/11/25 05:41:16;;;;;;;3.13;1.30;;;;;;;0.90;100.00;97699.47;5034220;28;20225;-80
2023/11/25 05:43:46;;;;;;;2.70;1.37;;;;;;;0.91;100.00;97712.44;5037657;28;20239;-80
2023/11/25 05:46:21;;;;;;;3.90;1.40;;;;;;;0.86;100.00;97718.75;5037903;28;20224;-80
2023/11/25 05:48:47;;;;;;;1.77;1.30;;;;;;;0.78;100.00;97710.34;5037136;28;20208;-80
2023/11/25 05:51:16;;;;;;;3.93;1.50;;;;;;;0.79;100.00;97712.91;5039319;28;20232;-80
2023/11/25 05:53:42;;;;;;;3.33;1.90;;;;;;;0.73;100.00;97715.72;5037675;28;20267;-80
2023/11/25 05:56:09;;;;;;;4.23;1.50;;;;;;;0.74;100.00;97720.03;5037315;28;20229;-80
2023/11/25 05:58:35;;;;;;;2.60;1.43;;;;;;;0.80;100.00;97713.75;5036189;28;20219;-80
2023/11/25 06:01:02;;;;;;;4.23;1.33;;;;;;;0.76;100.00;97701.78;5034276;28;20716;-80
2023/11/25 06:03:29;;;;;;;2.33;1.60;;;;;;;0.83;100.00;97711.03;5034745;28;20323;-80
2023/11/25 06:05:55;;;;;;;4.07;1.33;;;;;;;0.82;100.00;97711.94;5034481;28;20227;-80
2023/11/25 06:08:23;;;;;;;2.83;1.50;;;;;;;0.86;100.00;97714.38;5034288;28;20216;-80
2023/11/25 06:10:50;;;;;;;2.70;1.60;;;;;;;0.93;100.00;97708.03;5034197;28;20204;-80
2023/11/25 06:13:16;;;;;;;3.40;1.63;;;;;;;1.03;100.00;97714.56;5034127;28;20209;-80
2023/11/25 06:15:43;;;;;;;2.67;1.27;;;;;;;1.14;100.00;97704.59;5034004;28;20216;-80
2023/11/25 06:18:12;;;;;;;3.60;1.30;;;;;;;1.19;100.00;97709.63;5034416;28;20219;-80
2023/11/25 06:20:38;;;;;;;2.90;1.20;;;;;;;1.25;100.00;97706.78;5034181;28;20673;-79
2023/11/25 06:23:05;;;;;;;2.37;1.37;;;;;;;1.24;100.00;97705.09;5033854;28;20260;-77
2023/11/25 06:25:33;;;;;;;2.60;1.00;;;;;;;1.26;100.00;97706.72;5033526;28;20249;-78
2023/11/25 06:27:59;;;;;;;2.60;1.63;;;;;;;1.32;100.00;97708.25;5033709;28;20206;-78
2023/11/25 06:30:26;;;;;;;3.17;1.20;;;;;;;1.35;100.00;97708.97;5033802;28;20580;-76
2023/11/25 06:32:52;;;;;;;3.83;1.37;;;;;;;1.42;100.00;97713.00;5033694;28;20245;-76
2023/11/25 06:35:18;;;;;;;3.83;1.40;;;;;;;1.46;100.00;97717.19;5033785;28;20205;-78
2023/11/25 06:37:45;;;;;;;1.30;0.93;;;;;;;1.54;100.00;97715.13;5033677;28;20213;-78
2023/11/25 06:40:13;;;;;;;2.27;1.20;;;;;;;1.53;100.00;97713.44;5034004;28;20281;-78
2023/11/25 06:42:42;;;;;;;2.43;1.40;;;;;;;1.62;100.00;97714.81;5033696;28;20294;-78
2023/11/25 06:45:09;;;;;;;2.70;1.07;;;;;;;1.67;100.00;97705.91;5033184;28;20216;-77
2023/11/25 06:47:35;;;;;;;2.93;1.10;;;;;;;1.66;100.00;97701.59;5033057;28;20208;-77
2023/11/25 06:50:02;;;;;;;2.47;1.13;;;;;;;1.73;100.00;97703.03;5033047;28;20225;-77
2023/11/25 06:52:28;;;;;;;2.77;1.60;;;;;;;1.72;100.00;97709.16;5033004;28;20232;-79
2023/11/25 06:54:55;;;;;;;1.67;1.20;;;;;;;1.72;100.00;97719.59;5031675;28;20215;-78
2023/11/25 06:57:21;;;;;;;2.20;1.23;;;;;;;1.77;100.00;97717.66;5033219;28;20212;-77
2023/11/25 06:59:49;;;;;;;3.47;1.30;;;;;;;1.80;100.00;97716.69;5033185;28;20204;-77
2023/11/25 07:02:16;;;;;;;3.20;1.40;;;;;;;1.80;100.00;97714.94;5032852;28;20697;-77
2023/11/25 07:04:42;;;;;;;3.07;1.27;;;;;;;1.85;100.00;97718.16;5032841;28;20245;-77
2023/11/25 07:07:09;;;;;;;4.37;1.40;;;;;;;1.84;100.00;97724.28;5033262;28;20209;-77
2023/11/25 07:09:36;;;;;;;5.47;1.20;;;;;;;1.83;100.00;97732.19;5032614;28;20205;-77
2023/11/25 07:12:04;;;;;;;2.57;1.30;;;;;;;1.84;100.00;97733.88;5033007;28;20324;-77
2023/11/25 07:14:30;;;;;;;1.97;1.13;;;;;;;1.83;100.00;97743.44;5032658;28;20292;-77
2023/11/25 07:16:58;;;;;;;1.60;1.00;;;;;;;1.85;100.00;97746.81;5033348;28;20221;-78
2023/11/25 07:19:25;;;;;;;3.00;1.10;;;;;;;1.91;100.00;97745.75;5033263;28;20209;-79
2023/11/25 07:21:51;;;;;;;2.47;1.33;;;;;;;1.95;100.00;97747.28;5032440;28;20609;-77
2023/11/25 07:24:18;;;;;;;2.73;1.23;;;;;;;1.94;100.00;97751.69;5032668;28;20239;-79
2023/11/25 07:26:51;;;;;;;1.90;1.60;;;;;;;1.96;100.00;97765.47;5033233;28;20213;-80
2023/11/25 07:29:19;;;;;;;2.80;1.60;;;;;;;2.02;100.00;97767.00;5033412;28;20208;-80
2023/11/25 07:31:45;;;;;;;5.03;1.67;;;;;;;2.11;100.00;97759.66;5033002;28;20229;-80
2023/11/25 07:34:14;;;;;;;2.47;1.20;;;;;;;2.08;100.00;97762.38;5032927;28;20201;-79
2023/11/25 07:36:42;;;;;;;2.67;1.10;;;;;;;2.08;100.00;97762.38;5032530;28;20342;-77
2023/11/25 07:39:09;;;;;;;4.27;1.10;;;;;;;2.20;100.00;97769.69;5032651;28;20626;-77
2023/11/25 07:41:35;;;;;;;2.40;1.30;;;;;;;2.26;100.00;97764.22;5032600;28;20236;-78
2023/11/25 07:44:02;;;;;;;2.70;1.63;;;;;;;2.27;100.00;97771.13;5032268;28;20243;-78
2023/11/25 07:46:28;;;;;;;1.53;1.10;;;;;;;2.29;100.00;97774.53;5032412;28;20209;-77
2023/11/25 07:48:55;;;;;;;1.60;0.90;;;;;;;2.33;100.00;97770.84;5032137;28;20209;-77
2023/11/25 07:51:25;;;;;;;3.67;1.13;;;;;;;2.34;100.00;97772.53;5032159;28;20255;-77
2023/11/25 07:53:52;;;;;;;2.63;1.17;;;;;;;2.35;100.00;97779.47;5030851;28;20205;-79
2023/11/25 07:56:18;;;;;;;5.93;1.10;;;;;;;2.41;100.00;97774.00;5032467;28;20209;-79
2023/11/25 07:58:45;;;;;;;1.90;1.10;;;;;;;2.48;100.00;97778.03;5032499;28;20316;-79
2023/11/25 08:01:12;;;;;;;2.00;1.00;;;;;;;2.50;100.00;97778.81;5032955;28;20239;-79
2023/11/25 08:03:39;;;;;;;1.87;1.10;;;;;;;2.52;100.00;97771.75;5031708;28;20327;-79
2023/11/25 08:06:05;;;;;;;3.03;1.20;;;;;;;2.59;100.00;97767.13;5032292;28;20211;-79
2023/11/25 08:08:33;;;;;;;0.90;0.90;;;;;;;2.64;100.00;97771.22;5031650;28;20220;-77
2023/11/25 08:11:00;;;;;;;0.93;0.80;;;;;;;2.63;100.00;97774.75;5031812;28;20228;-77
2023/11/25 08:13:26;;;;;;;1.87;1.10;;;;;;;2.68;100.00;97772.81;5032643;28;20205;-78
2023/11/25 08:15:53;;;;;;;3.63;1.23;;;;;;;2.71;100.00;97767.47;5032173;28;20209;-78
2023/11/25 08:18:19;;;;;;;4.17;1.47;;;;;;;2.74;100.00;97767.31;5032138;28;20582;-80
2023/11/25 08:20:47;;;;;;;2.63;1.13;;;;;;;2.79;100.00;97765.34;5032176;28;20303;-79
2023/11/25 08:23:15;;;;;;;2.20;1.23;;;;;;;2.86;100.00;97763.31;5032050;28;20776;-78
2023/11/25 08:25:43;;;;;;;2.63;1.30;;;;;;;2.90;100.00;97765.72;5031550;28;20208;-79
2023/11/25 08:28:09;;;;;;;5.43;1.50;;;;;;;2.84;100.00;97758.19;5030301;28;20209;-78
2023/11/25 08:30:36;;;;;;;1.60;1.17;;;;;;;2.89;100.00;97769.22;5031613;28;20229;-77
2023/11/25 08:33:04;;;;;;;2.33;1.30;;;;;;;2.92;100.00;97761.28;5031675;28;20208;-77
2023/11/25 08:35:31;;;;;;;2.50;1.27;;;;;;;2.91;100.00;97769.16;5031547;28;20512;-77
2023/11/25 08:37:58;;;;;;;5.27;1.40;;;;;;;2.88;100.00;97774.53;5031479;28;20212;-77
2023/11/25 08:40:24;;;;;;;1.60;1.10;;;;;;;3.03;100.00;97769.47;5031320;28;20263;-77
2023/11/25 08:42:52;;;;;;;3.67;1.17;;;;;;;3.09;100.00;97773.56;5031607;28;20233;-79
2023/11/25 08:45:19;;;;;;;2.10;0.90;;;;;;;3.16;100.00;97775.84;5030917;28;20212;-77
2023/11/25 08:47:45;;;;;;;4.50;1.20;;;;;;;3.20;100.00;97760.88;5031177;28;20295;-77
2023/11/25 08:50:15;;;;;;;6.57;1.10;;;;;;;3.23;100.00;97772.03;5031262;28;20211;-77
2023/11/25 08:52:42;;;;;;;2.63;1.10;;;;;;;3.27;100.00;97759.66;5031272;28;20260;-78
2023/11/25 08:55:09;;;;;;;5.23;1.10;;;;;;;3.26;100.00;97766.69;5031652;28;20204;-79
2023/11/25 08:57:37;;;;;;;3.70;1.10;;;;;;;3.27;100.00;97764.88;5031353;28;20278;-79
2023/11/25 09:00:14;;;;;;;2.53;1.00;;;;;;;3.29;100.00;97776.97;5031083;28;20210;-79
2023/11/25 09:02:41;;;;;;;3.77;1.27;;;;;;;3.23;100.00;97772.03;5031007;28;20279;-77
2023/11/25 09:05:07;;;;;;;4.60;1.47;;;;;;;3.25;100.00;97780.63;5031539;28;20263;-80
2023/11/25 09:07:34;;;;;;;2.23;1.30;;;;;;;3.21;100.00;97779.09;5031478;28;20212;-79
2023/11/25 09:10:04;;;;;;;3.70;1.07;;;;;;;3.14;100.00;97776.81;5031512;28;20208;-77
2023/11/25 09:12:31;;;;;;;2.03;1.30;;;;;;;3.25;100.00;97769.34;5030732;28;20233;-77
2023/11/25 09:14:58;;;;;;;4.60;1.50;;;;;;;3.33;100.00;97759.38;5030869;28;20209;-77
2023/11/25 09:17:25;;;;;;;2.87;1.00;;;;;;;3.44;100.00;97767.56;5031940;28;20212;-77
2023/11/25 09:19:52;;;;;;;2.30;1.07;;;;;;;3.48;100.00;97756.06;5034681;28;20695;-77
2023/11/25 09:22:19;;;;;;;6.60;1.30;;;;;;;3.56;100.00;97748.72;5034697;28;20229;-76
2023/11/25 09:24:46;;;;;;;3.17;1.23;;;;;;;3.67;100.00;97736.00;5034696;28;20237;-79
2023/11/25 09:27:13;;;;;;;7.73;1.37;;;;;;;3.71;100.00;97738.38;5034607;28;20210;-77
2023/11/25 09:29:41;;;;;;;5.23;1.10;;;;;;;3.71;100.00;97733.13;5034759;28;20207;-78
2023/11/25 09:32:09;;;;;;;2.17;1.10;;;;;;;3.67;100.00;97734.19;5034840;28;20727;-77
2023/11/25 09:34:38;;;;;;;4.53;1.50;;;;;;;3.67;100.00;97733.38;5034696;28;20256;-77
2023/11/25 09:37:07;;;;;;;5.50;2.07;;;;;;;3.62;100.00;97737.97;5034834;28;20209;-77
2023/11/25 09:39:34;;;;;;;3.63;1.63;;;;;;;3.58;100.00;97739.88;5034886;28;20244;-77
2023/11/25 09:42:02;;;;;;;2.43;1.13;;;;;;;3.50;100.00;97726.34;5034842;28;20232;-76
2023/11/25 09:44:30;;;;;;;3.80;1.37;;;;;;;3.54;100.00;97724.44;5033955;28;20327;-77
2023/11/25 09:46:56;;;;;;;2.60;1.50;;;;;;;3.53;100.00;97722.72;5035347;28;20208;-77
2023/11/25 09:49:24;;;;;;;4.90;1.50;;;;;;;3.54;100.00;97724.44;5034683;28;20237;-78
2023/11/25 09:51:52;;;;;;;5.13;1.43;;;;;;;3.65;100.00;97724.75;5033698;28;20224;-77
2023/11/25 09:54:21;;;;;;;3.40;1.17;;;;;;;3.65;100.00;97712.53;5032730;28;20216;-77
2023/11/25 09:56:50;;;;;;;6.90;2.03;;;;;;;3.66;100.00;97714.22;5033654;28;20222;-77
2023/11/25 09:59:18;;;;;;;5.77;2.10;;;;;;;3.72;100.00;97706.09;5034332;28;20209;-77
2023/11/25 10:01:45;;;;;;;5.63;2.00;;;;;;;3.83;100.00;97706.41;5034322;28;20237;-77
2023/11/25 10:04:13;;;;;;;5.90;2.10;;;;;;;3.97;100.00;97705.75;5034038;28;20228;-77
2023/11/25 10:06:39;;;;;;;3.97;1.97;;;;;;;4.07;100.00;97705.19;5034236;28;20660;-77
2023/11/25 10:09:09;;;;;;;4.80;1.70;;;;;;;4.25;100.00;97703.41;5034640;28;20217;-78
2023/11/25 10:11:36;;;;;;;5.70;1.80;;;;;;;4.36;100.00;97691.50;5034556;28;20333;-77
2023/11/25 10:14:04;;;;;;;8.83;1.70;;;;;;;4.46;100.00;97692.69;5033647;28;20202;-77
2023/11/25 10:16:31;;;;;;;2.97;1.33;;;;;;;4.54;100.00;97695.78;5033908;28;20205;-77
2023/11/25 10:18:58;;;;;;;7.93;1.60;;;;;;;4.45;100.00;97696.22;5033843;28;20304;-77
2023/11/25 10:21:24;;;;;;;6.10;1.60;;;;;;;4.48;100.00;97701.31;5033601;28;20238;-77
2023/11/25 10:23:54;;;;;;;3.40;1.50;;;;;;;4.43;100.00;97700.72;5033660;28;20229;-77
2023/11/25 10:26:22;;;;;;;8.20;1.73;;;;;;;4.46;100.00;97690.06;5034049;28;20309;-78
2023/11/25 10:28:49;;;;;;;3.67;1.53;;;;;;;4.39;100.00;97686.09;5035275;28;20695;-75
2023/11/25 10:31:15;;;;;;;3.00;1.40;;;;;;;4.37;100.00;97685.31;5033814;28;20230;-77
2023/11/25 10:33:42;;;;;;;5.33;1.87;;;;;;;4.37;100.00;97692.31;5033149;28;20206;-77
2023/11/25 10:36:10;;;;;;;7.80;2.30;;;;;;;4.38;100.00;97679.16;5033658;28;20262;-77
2023/11/25 10:38:41;;;;;;;7.07;1.93;;;;;;;4.33;100.00;97662.84;5033435;28;20213;-77
2023/11/25 10:41:08;;;;;;;6.70;1.60;;;;;;;4.32;100.00;97658.56;5034767;28;20246;-78
2023/11/25 10:43:37;;;;;;;7.33;1.77;;;;;;;4.28;100.00;97666.66;5034635;28;20228;-77
2023/11/25 10:46:05;;;;;;;8.73;1.97;;;;;;;4.34;100.00;97656.69;5035515;28;20209;-78
2023/11/25 10:48:32;;;;;;;9.00;2.07;;;;;;;4.33;100.00;97660.25;5035986;28;20251;-80
2023/11/25 10:50:58;;;;;;;10.37;1.97;;;;;;;4.33;100.00;97644.53;5035145;28;20731;-80
2023/11/25 10:53:28;;;;;;;10.20;2.70;;;;;;;4.33;100.00;97648.94;5036314;28;20221;-78
2023/11/25 10:55:56;;;;;;;6.17;1.77;;;;;;;4.33;100.00;97638.47;5036482;28;20233;-78
2023/11/25 10:58:22;;;;;;;5.13;1.70;;;;;;;4.40;100.00;97629.38;5035679;28;20206;-77
2023/11/25 11:00:52;;;;;;;6.20;2.10;;;;;;;4.49;100.00;97624.50;5035627;28;20217;-79
2023/11/25 11:03:22;;;;;;;5.67;2.00;;;;;;;4.58;100.00;97624.00;5034171;28;20300;-78
2023/11/25 11:05:51;;;;;;;8.33;1.80;;;;;;;4.61;100.00;97612.53;5033475;28;20255;-77
2023/11/25 11:08:21;;;;;;;4.93;2.20;;;;;;;4.59;99.99;97622.25;5033635;28;20217;-78
2023/11/25 11:10:53;;;;;;;5.27;1.80;;;;;;;4.54;99.80;97616.41;5034028;28;20632;-78
2023/11/25 11:13:28;;;;;;;3.80;1.80;;;;;;;4.56;100.00;97618.03;5035356;28;20215;-78
2023/11/25 11:16:00;;;;;;;6.53;1.73;;;;;;;4.52;100.00;97623.50;5034229;28;20209;-78
2023/11/25 11:18:35;;;;;;;6.93;2.13;;;;;;;4.53;100.00;97623.41;5033630;28;20248;-79
2023/11/25 11:21:02;;;;;;;6.57;1.63;;;;;;;4.61;100.00;97621.25;5032938;28;20316;-78
2023/11/25 11:23:32;;;;;;;9.40;2.23;;;;;;;4.75;99.99;97620.47;5032946;28;20219;-80
2023/11/25 11:26:08;;;;;;;5.33;1.77;;;;;;;4.74;98.32;97611.78;5032528;28;20233;-77
2023/11/25 11:28:44;;;;;;;8.57;1.90;;;;;;;4.79;97.93;97601.06;5033443;28;20219;-78
2023/11/25 11:31:43;;;;;;;4.37;1.50;;;;;;;4.86;98.12;97608.50;5033535;28;20324;-79
2023/11/25 11:34:11;;;;;;;2.93;1.90;;;;;;;4.99;99.46;97625.22;4997388;28;20210;-78
2023/11/25 11:36:37;;;;;;;4.73;1.80;;;;;;;4.89;100.00;97618.78;5033872;28;20243;-80